createdAt,value
2016-03-01T00:00:48.466Z,19.66
2016-03-01T00:01:48.452Z,19.75
2016-03-01T00:02:48.440Z,19.66
2016-03-01T00:03:48.411Z,19.65
2016-03-01T00:04:48.398Z,19.68
2016-03-01T00:05:48.386Z,19.65
2016-03-01T00:06:48.357Z,19.63
2016-03-01T00:07:48.343Z,19.7
2016-03-01T00:08:48.331Z,19.66
2016-03-01T00:09:48.318Z,19.61
2016-03-01T00:10:48.289Z,19.6
2016-03-01T00:11:48.276Z,19.66
2016-03-01T00:12:48.248Z,19.66
2016-03-01T00:13:48.235Z,19.7
2016-03-01T00:14:48.222Z,19.7
2016-03-01T00:15:48.209Z,19.66
2016-03-01T00:16:48.180Z,19.7
2016-03-01T00:17:48.168Z,19.69
2016-03-01T00:18:48.139Z,19.68
2016-03-01T00:19:48.126Z,19.68
2016-03-01T00:20:48.159Z,19.69
2016-03-01T00:21:48.085Z,19.61
2016-03-01T00:22:48.087Z,19.55
2016-03-01T00:23:48.043Z,19.66
2016-03-01T00:24:48.031Z,19.72
2016-03-01T00:25:48.033Z,19.68
2016-03-01T00:26:48.005Z,19.68
2016-03-01T00:27:47.975Z,19.69
2016-03-01T00:28:47.978Z,19.58
2016-03-01T00:29:47.933Z,19.66
2016-03-01T00:30:47.783Z,19.57
2016-03-01T00:31:47.927Z,19.61
2016-03-01T00:32:47.913Z,19.65
2016-03-01T00:33:47.885Z,19.65
2016-03-01T00:34:47.872Z,19.69
2016-03-01T00:35:47.828Z,19.66
2016-03-01T00:36:47.831Z,19.68
2016-03-01T00:37:47.833Z,19.6
2016-03-01T00:38:47.789Z,19.61
2016-03-01T00:39:47.776Z,19.6
2016-03-01T00:40:47.763Z,19.61
2016-03-01T00:41:47.735Z,19.65
2016-03-01T00:42:47.707Z,19.69
2016-03-01T00:43:47.709Z,19.66
2016-03-01T00:44:47.681Z,19.65
2016-03-01T00:45:47.668Z,19.58
2016-03-01T00:46:47.640Z,19.72
2016-03-01T00:47:47.626Z,19.72
2016-03-01T00:48:47.598Z,19.65
2016-03-01T00:49:47.600Z,19.68
2016-03-01T00:50:47.571Z,19.72
2016-03-01T00:51:47.563Z,19.63
2016-03-01T00:52:47.549Z,19.65
2016-03-01T00:53:47.521Z,19.61
2016-03-01T00:54:47.524Z,19.65
2016-03-01T00:55:47.495Z,19.65
2016-03-01T00:56:47.451Z,19.63
2016-03-01T00:57:47.469Z,19.7
2016-03-01T00:58:47.426Z,19.66
2016-03-01T00:59:47.413Z,19.68
2016-03-01T01:00:47.415Z,19.65
2016-03-01T01:01:47.370Z,19.63
2016-03-01T01:02:47.358Z,19.68
2016-03-01T01:03:47.393Z,19.63
2016-03-01T01:04:47.332Z,19.66
2016-03-01T01:05:47.304Z,19.69
2016-03-01T01:06:47.306Z,19.69
2016-03-01T01:07:47.278Z,19.68
2016-03-01T01:08:47.249Z,19.7
2016-03-01T01:09:47.237Z,19.68
2016-03-01T01:10:47.223Z,19.66
2016-03-01T01:11:47.195Z,19.65
2016-03-01T01:12:47.181Z,19.63
2016-03-01T01:13:47.169Z,19.68
2016-03-01T01:14:47.139Z,19.7
2016-03-01T01:15:47.127Z,19.7
2016-03-01T01:16:47.099Z,19.7
2016-03-01T01:17:47.086Z,19.65
2016-03-01T01:18:47.088Z,19.66
2016-03-01T01:19:47.060Z,19.68
2016-03-01T01:20:47.030Z,19.61
2016-03-01T01:21:47.034Z,19.69
2016-03-01T01:22:46.991Z,19.68
2016-03-01T01:23:46.993Z,19.66
2016-03-01T01:24:46.980Z,19.69
2016-03-01T01:25:46.935Z,19.63
2016-03-01T01:26:46.938Z,19.57
2016-03-01T01:27:46.925Z,19.6
2016-03-01T01:28:46.896Z,19.63
2016-03-01T01:29:46.868Z,19.55
2016-03-01T01:30:46.870Z,19.57
2016-03-01T01:31:46.842Z,19.6
2016-03-01T01:32:46.829Z,19.58
2016-03-01T01:33:46.816Z,19.61
2016-03-01T01:34:46.788Z,19.6
2016-03-01T01:35:46.759Z,19.66
2016-03-01T01:36:46.746Z,19.66
2016-03-01T01:37:46.733Z,19.54
2016-03-01T01:38:46.705Z,19.53
2016-03-01T01:39:46.692Z,19.66
2016-03-01T01:40:46.679Z,19.55
2016-03-01T01:41:46.667Z,19.63
2016-03-01T01:42:46.653Z,19.65
2016-03-01T01:43:46.625Z,19.57
2016-03-01T01:44:46.595Z,19.6
2016-03-01T01:45:46.598Z,19.58
2016-03-01T01:46:46.570Z,19.51
2016-03-01T01:47:46.542Z,19.55
2016-03-01T01:48:46.528Z,19.63
2016-03-01T01:49:46.516Z,19.55
2016-03-01T01:50:46.486Z,19.63
2016-03-01T01:51:46.474Z,19.6
2016-03-01T01:52:46.477Z,19.57
2016-03-01T01:53:46.433Z,19.53
2016-03-01T01:54:46.419Z,19.6
2016-03-01T01:55:46.407Z,19.51
2016-03-01T01:56:46.377Z,19.53
2016-03-01T01:57:46.366Z,19.57
2016-03-01T01:58:46.383Z,19.55
2016-03-01T01:59:46.324Z,19.57
2016-03-01T02:00:46.310Z,19.63
2016-03-01T02:01:46.329Z,19.55
2016-03-01T02:02:46.285Z,19.57
2016-03-01T02:03:46.272Z,19.57
2016-03-01T02:04:46.243Z,19.57
2016-03-01T02:05:46.231Z,19.58
2016-03-01T02:06:46.218Z,19.6
2016-03-01T02:07:46.190Z,19.58
2016-03-01T02:08:46.176Z,19.58
2016-03-01T02:09:46.163Z,19.57
2016-03-01T02:10:46.134Z,19.61
2016-03-01T02:11:46.137Z,19.54
2016-03-01T02:12:46.093Z,19.69
2016-03-01T02:13:45.924Z,19.55
2016-03-01T02:14:46.083Z,19.57
2016-03-01T02:15:46.039Z,19.65
2016-03-01T02:16:46.041Z,19.6
2016-03-01T02:17:45.856Z,19.68
2016-03-01T02:18:45.984Z,19.61
2016-03-01T02:19:45.986Z,19.6
2016-03-01T02:20:45.951Z,19.6
2016-03-01T02:21:46.002Z,19.66
2016-03-01T02:22:45.958Z,19.66
2016-03-01T02:23:46.552Z,19.68
2016-03-01T02:24:46.258Z,19.61
2016-03-01T02:25:45.901Z,19.68
2016-03-01T02:26:45.842Z,19.61
2016-03-01T02:27:45.860Z,19.69
2016-03-01T02:28:45.816Z,19.69
2016-03-01T02:29:45.788Z,19.68
2016-03-01T02:30:45.775Z,19.69
2016-03-01T02:31:45.761Z,19.6
2016-03-01T02:32:45.749Z,19.6
2016-03-01T02:33:45.735Z,19.58
2016-03-01T02:34:45.707Z,19.69
2016-03-01T02:35:45.694Z,19.66
2016-03-01T02:36:45.665Z,19.6
2016-03-01T02:37:45.652Z,19.55
2016-03-01T02:38:45.654Z,19.6
2016-03-01T02:39:45.612Z,19.57
2016-03-01T02:40:45.598Z,19.6
2016-03-01T02:41:45.601Z,19.58
2016-03-01T02:42:45.557Z,19.61
2016-03-01T02:43:45.543Z,19.72
2016-03-01T02:44:45.515Z,19.57
2016-03-01T02:45:45.502Z,19.51
2016-03-01T02:46:45.505Z,19.53
2016-03-01T02:47:45.476Z,19.54
2016-03-01T02:48:45.448Z,19.58
2016-03-01T02:49:45.450Z,19.57
2016-03-01T02:50:45.406Z,19.6
2016-03-01T02:51:45.394Z,19.54
2016-03-01T02:52:45.396Z,19.66
2016-03-01T02:53:45.352Z,19.6
2016-03-01T02:54:45.339Z,19.58
2016-03-01T02:55:45.341Z,19.6
2016-03-01T02:56:45.297Z,19.53
2016-03-01T02:57:45.285Z,19.54
2016-03-01T02:58:45.288Z,19.54
2016-03-01T02:59:45.258Z,19.57
2016-03-01T03:00:45.246Z,19.54
2016-03-01T03:01:45.216Z,19.58
2016-03-01T03:02:45.204Z,19.55
2016-03-01T03:03:45.191Z,19.51
2016-03-01T03:04:45.210Z,19.54
2016-03-01T03:05:45.149Z,19.6
2016-03-01T03:06:45.121Z,19.55
2016-03-01T03:07:45.093Z,19.65
2016-03-01T03:08:44.940Z,19.55
2016-03-01T03:09:45.082Z,19.53
2016-03-01T03:10:45.054Z,19.55
2016-03-01T03:11:45.040Z,19.55
2016-03-01T03:12:45.028Z,19.58
2016-03-01T03:13:44.999Z,19.57
2016-03-01T03:14:44.986Z,19.57
2016-03-01T03:15:44.973Z,19.61
2016-03-01T03:16:44.945Z,19.6
2016-03-01T03:17:44.931Z,19.66
2016-03-01T03:18:44.903Z,19.61
2016-03-01T03:19:44.906Z,19.58
2016-03-01T03:20:44.892Z,19.57
2016-03-01T03:21:44.880Z,19.57
2016-03-01T03:22:44.836Z,19.55
2016-03-01T03:23:44.823Z,19.58
2016-03-01T03:24:44.810Z,19.57
2016-03-01T03:25:44.782Z,19.63
2016-03-01T03:26:44.784Z,19.57
2016-03-01T03:27:44.756Z,19.57
2016-03-01T03:28:44.727Z,19.6
2016-03-01T03:29:44.714Z,19.55
2016-03-01T03:30:44.544Z,19.54
2016-03-01T03:31:44.688Z,19.57
2016-03-01T03:32:44.660Z,19.55
2016-03-01T03:33:44.647Z,19.57
2016-03-01T03:34:44.634Z,19.61
2016-03-01T03:35:44.605Z,19.55
2016-03-01T03:36:44.608Z,19.55
2016-03-01T03:37:44.563Z,19.57
2016-03-01T03:38:44.567Z,19.55
2016-03-01T03:39:44.585Z,19.57
2016-03-01T03:40:44.526Z,19.61
2016-03-01T03:41:44.496Z,19.57
2016-03-01T03:42:44.499Z,19.6
2016-03-01T03:43:44.471Z,19.54
2016-03-01T03:44:44.458Z,19.54
2016-03-01T03:45:44.429Z,19.58
2016-03-01T03:46:44.417Z,19.53
2016-03-01T03:47:44.403Z,19.65
2016-03-01T03:48:44.390Z,19.6
2016-03-01T03:49:44.361Z,19.63
2016-03-01T03:50:44.381Z,19.6
2016-03-01T03:51:44.336Z,19.6
2016-03-01T03:52:44.323Z,19.55
2016-03-01T03:53:44.278Z,19.58
2016-03-01T03:54:44.313Z,19.58
2016-03-01T03:55:44.252Z,19.55
2016-03-01T03:56:44.240Z,19.61
2016-03-01T03:57:44.212Z,19.57
2016-03-01T03:58:44.183Z,19.57
2016-03-01T03:59:44.169Z,19.6
2016-03-01T04:00:44.172Z,19.58
2016-03-01T04:01:44.144Z,19.58
2016-03-01T04:02:44.131Z,19.55
2016-03-01T04:03:44.103Z,19.58
2016-03-01T04:04:44.090Z,19.58
2016-03-01T04:05:44.077Z,19.61
2016-03-01T04:06:44.048Z,19.57
2016-03-01T04:07:44.035Z,19.57
2016-03-01T04:08:44.021Z,19.61
2016-03-01T04:09:43.994Z,19.58
2016-03-01T04:10:43.976Z,19.58
2016-03-01T04:11:43.947Z,19.54
2016-03-01T04:12:43.997Z,19.57
2016-03-01T04:13:43.921Z,19.55
2016-03-01T04:14:43.909Z,19.61
2016-03-01T04:15:43.912Z,19.53
2016-03-01T04:16:43.867Z,19.57
2016-03-01T04:17:43.854Z,19.57
2016-03-01T04:18:43.826Z,19.58
2016-03-01T04:19:43.812Z,19.53
2016-03-01T04:20:43.816Z,19.55
2016-03-01T04:21:43.787Z,19.6
2016-03-01T04:22:43.759Z,19.57
2016-03-01T04:23:43.761Z,19.58
2016-03-01T04:24:43.732Z,19.6
2016-03-01T04:25:43.720Z,19.57
2016-03-01T04:26:43.707Z,19.55
2016-03-01T04:27:43.678Z,19.54
2016-03-01T04:28:43.665Z,19.43
2016-03-01T04:29:43.636Z,19.54
2016-03-01T04:30:43.623Z,19.55
2016-03-01T04:31:43.611Z,19.58
2016-03-01T04:32:43.583Z,19.58
2016-03-01T04:33:43.570Z,19.55
2016-03-01T04:34:43.556Z,19.55
2016-03-01T04:35:43.528Z,19.54
2016-03-01T04:36:43.514Z,19.58
2016-03-01T04:37:43.533Z,19.53
2016-03-01T04:38:43.474Z,19.57
2016-03-01T04:39:43.460Z,19.57
2016-03-01T04:40:43.432Z,19.55
2016-03-01T04:41:43.419Z,19.53
2016-03-01T04:42:43.421Z,19.58
2016-03-01T04:43:43.377Z,19.63
2016-03-01T04:44:43.396Z,19.53
2016-03-01T04:45:43.368Z,19.55
2016-03-01T04:46:43.323Z,19.55
2016-03-01T04:47:43.310Z,19.54
2016-03-01T04:48:43.343Z,19.57
2016-03-01T04:49:43.268Z,19.53
2016-03-01T04:50:43.270Z,19.58
2016-03-01T04:51:43.227Z,19.6
2016-03-01T04:52:43.214Z,19.58
2016-03-01T04:53:43.201Z,19.55
2016-03-01T04:54:43.187Z,19.51
2016-03-01T04:55:43.175Z,19.58
2016-03-01T04:56:43.162Z,19.6
2016-03-01T04:57:43.118Z,19.58
2016-03-01T04:58:43.106Z,19.57
2016-03-01T04:59:43.108Z,19.58
2016-03-01T05:00:43.095Z,19.58
2016-03-01T05:01:43.066Z,19.57
2016-03-01T05:02:43.147Z,19.61
2016-03-01T05:03:43.024Z,19.6
2016-03-01T05:04:42.997Z,19.55
2016-03-01T05:05:42.999Z,19.53
2016-03-01T05:06:42.970Z,19.53
2016-03-01T05:07:42.973Z,19.53
2016-03-01T05:08:42.944Z,19.53
2016-03-01T05:09:42.916Z,19.6
2016-03-01T05:10:42.902Z,19.53
2016-03-01T05:11:42.921Z,19.55
2016-03-01T05:12:42.861Z,19.55
2016-03-01T05:13:42.849Z,19.55
2016-03-01T05:14:42.835Z,19.54
2016-03-01T05:15:42.807Z,19.53
2016-03-01T05:16:42.810Z,19.58
2016-03-01T05:17:42.782Z,19.54
2016-03-01T05:18:42.751Z,19.53
2016-03-01T05:19:42.728Z,19.65
2016-03-01T05:20:42.719Z,19.51
2016-03-01T05:21:42.664Z,19.65
2016-03-01T05:22:42.640Z,19.53
2016-03-01T05:23:42.648Z,19.42
2016-03-01T05:24:42.583Z,19.57
2016-03-01T05:25:42.566Z,19.55
2016-03-01T05:26:42.549Z,19.46
2016-03-01T05:27:42.533Z,19.46
2016-03-01T05:28:42.499Z,19.58
2016-03-01T05:29:42.533Z,19.46
2016-03-01T05:30:42.471Z,19.54
2016-03-01T05:31:42.456Z,19.54
2016-03-01T05:32:42.426Z,19.48
2016-03-01T05:33:42.396Z,19.48
2016-03-01T05:34:42.382Z,19.55
2016-03-01T05:35:42.370Z,19.53
2016-03-01T05:36:42.340Z,19.66
2016-03-01T05:37:42.327Z,19.55
2016-03-01T05:38:42.313Z,19.42
2016-03-01T05:39:42.284Z,19.58
2016-03-01T05:40:42.272Z,19.58
2016-03-01T05:41:42.259Z,19.66
2016-03-01T05:42:42.229Z,19.53
2016-03-01T05:43:42.231Z,19.55
2016-03-01T05:44:42.203Z,19.54
2016-03-01T05:45:42.175Z,19.54
2016-03-01T05:46:42.178Z,19.54
2016-03-01T05:47:42.149Z,19.53
2016-03-01T05:48:42.167Z,19.58
2016-03-01T05:49:42.107Z,19.66
2016-03-01T05:50:42.094Z,19.55
2016-03-01T05:51:42.065Z,19.55
2016-03-01T05:52:42.052Z,19.48
2016-03-01T05:53:41.883Z,19.54
2016-03-01T05:54:42.027Z,19.63
2016-03-01T05:55:41.999Z,19.48
2016-03-01T05:56:42.001Z,19.51
2016-03-01T05:57:41.972Z,19.58
2016-03-01T05:58:41.944Z,19.58
2016-03-01T05:59:41.915Z,19.57
2016-03-01T06:00:41.902Z,19.57
2016-03-01T06:01:41.749Z,19.53
2016-03-01T06:02:41.876Z,19.58
2016-03-01T06:03:41.864Z,19.57
2016-03-01T06:04:41.835Z,19.55
2016-03-01T06:05:41.822Z,19.54
2016-03-01T06:06:41.809Z,19.57
2016-03-01T06:07:41.781Z,19.57
2016-03-01T06:08:41.752Z,19.57
2016-03-01T06:09:41.739Z,19.57
2016-03-01T06:10:41.725Z,19.58
2016-03-01T06:11:41.729Z,19.55
2016-03-01T06:12:41.700Z,19.58
2016-03-01T06:13:41.672Z,19.55
2016-03-01T06:14:41.659Z,19.58
2016-03-01T06:15:41.646Z,19.61
2016-03-01T06:16:41.649Z,19.58
2016-03-01T06:17:41.604Z,19.58
2016-03-01T06:18:41.575Z,19.58
2016-03-01T06:19:41.578Z,19.53
2016-03-01T06:20:41.550Z,19.55
2016-03-01T06:21:41.537Z,19.58
2016-03-01T06:22:41.508Z,19.58
2016-03-01T06:23:41.495Z,19.6
2016-03-01T06:24:41.483Z,19.58
2016-03-01T06:25:41.454Z,19.58
2016-03-01T06:26:41.441Z,19.53
2016-03-01T06:27:41.429Z,19.53
2016-03-01T06:28:41.415Z,19.55
2016-03-01T06:29:41.684Z,19.58
2016-03-01T06:30:41.358Z,19.57
2016-03-01T06:31:41.360Z,19.55
2016-03-01T06:32:41.332Z,19.57
2016-03-01T06:33:41.335Z,19.54
2016-03-01T06:34:41.306Z,19.58
2016-03-01T06:35:41.278Z,19.54
2016-03-01T06:36:41.248Z,19.57
2016-03-01T06:37:41.237Z,19.58
2016-03-01T06:38:41.223Z,19.61
2016-03-01T06:39:41.226Z,19.53
2016-03-01T06:40:41.197Z,19.57
2016-03-01T06:41:41.184Z,19.58
2016-03-01T06:42:41.140Z,19.57
2016-03-01T06:43:41.143Z,19.55
2016-03-01T06:44:41.114Z,19.55
2016-03-01T06:45:41.102Z,19.58
2016-03-01T06:46:41.089Z,19.57
2016-03-01T06:47:41.091Z,19.58
2016-03-01T06:48:41.047Z,19.61
2016-03-01T06:49:41.049Z,19.54
2016-03-01T06:50:41.005Z,19.55
2016-03-01T06:51:40.993Z,19.58
2016-03-01T06:52:40.979Z,19.55
2016-03-01T06:53:40.951Z,19.53
2016-03-01T06:54:40.954Z,19.54
2016-03-01T06:55:40.925Z,19.58
2016-03-01T06:56:40.913Z,19.57
2016-03-01T06:57:40.884Z,19.58
2016-03-01T06:58:40.871Z,19.55
2016-03-01T06:59:40.843Z,19.6
2016-03-01T07:00:40.829Z,19.55
2016-03-01T07:01:40.816Z,19.57
2016-03-01T07:02:40.788Z,19.55
2016-03-01T07:03:40.822Z,19.58
2016-03-01T07:04:40.762Z,19.55
2016-03-01T07:05:40.749Z,19.57
2016-03-01T07:06:40.720Z,19.58
2016-03-01T07:07:40.707Z,19.51
2016-03-01T07:08:40.679Z,19.57
2016-03-01T07:09:40.682Z,19.54
2016-03-01T07:10:40.669Z,19.58
2016-03-01T07:11:40.625Z,19.58
2016-03-01T07:12:40.611Z,19.55
2016-03-01T07:13:40.599Z,19.58
2016-03-01T07:14:40.586Z,19.55
2016-03-01T07:15:40.573Z,19.61
2016-03-01T07:16:40.606Z,19.58
2016-03-01T07:17:40.516Z,19.58
2016-03-01T07:18:40.519Z,19.58
2016-03-01T07:19:40.521Z,19.58
2016-03-01T07:20:40.477Z,19.55
2016-03-01T07:21:40.449Z,19.55
2016-03-01T07:22:40.452Z,19.55
2016-03-01T07:23:40.422Z,19.58
2016-03-01T07:24:40.410Z,19.55
2016-03-01T07:25:40.380Z,19.55
2016-03-01T07:26:40.353Z,19.6
2016-03-01T07:27:40.340Z,19.58
2016-03-01T07:28:40.343Z,19.57
2016-03-01T07:29:40.298Z,19.55
2016-03-01T07:30:40.301Z,19.55
2016-03-01T07:31:40.287Z,19.58
2016-03-01T07:32:40.290Z,19.55
2016-03-01T07:33:40.246Z,19.55
2016-03-01T07:34:40.218Z,19.58
2016-03-01T07:35:40.189Z,19.55
2016-03-01T07:36:40.192Z,19.57
2016-03-01T07:37:40.163Z,19.6
2016-03-01T07:38:40.165Z,19.55
2016-03-01T07:39:40.137Z,19.57
2016-03-01T07:40:40.109Z,19.54
2016-03-01T07:41:40.081Z,19.55
2016-03-01T07:42:40.099Z,19.54
2016-03-01T07:43:40.054Z,19.55
2016-03-01T07:44:40.041Z,19.61
2016-03-01T07:45:40.013Z,19.6
2016-03-01T07:46:40.000Z,19.51
2016-03-01T07:47:40.003Z,19.57
2016-03-01T07:48:39.959Z,19.6
2016-03-01T07:49:39.805Z,19.57
2016-03-01T07:50:39.916Z,19.58
2016-03-01T07:51:39.920Z,19.58
2016-03-01T07:52:39.953Z,19.54
2016-03-01T07:53:39.894Z,19.55
2016-03-01T07:54:39.865Z,19.57
2016-03-01T07:55:39.836Z,19.61
2016-03-01T07:56:39.824Z,19.57
2016-03-01T07:57:39.795Z,19.55
2016-03-01T07:58:39.814Z,19.57
2016-03-01T07:59:39.754Z,19.66
2016-03-01T08:00:39.756Z,19.55
2016-03-01T08:01:39.743Z,19.57
2016-03-01T08:02:39.715Z,19.57
2016-03-01T08:03:39.687Z,19.55
2016-03-01T08:04:39.673Z,19.58
2016-03-01T08:05:39.645Z,19.57
2016-03-01T08:06:39.648Z,19.57
2016-03-01T08:07:39.618Z,19.58
2016-03-01T08:08:39.621Z,19.53
2016-03-01T08:09:39.593Z,19.6
2016-03-01T08:10:39.565Z,19.63
2016-03-01T08:11:39.551Z,19.55
2016-03-01T08:12:39.523Z,19.6
2016-03-01T08:13:39.526Z,19.58
2016-03-01T08:14:42.653Z,19.63
2016-03-01T08:15:41.547Z,19.6
2016-03-01T08:16:39.455Z,19.68
2016-03-01T08:17:41.193Z,19.65
2016-03-01T08:18:43.086Z,19.69
2016-03-01T08:19:39.401Z,19.69
2016-03-01T08:20:43.201Z,19.58
2016-03-01T08:21:42.875Z,19.58
2016-03-01T08:22:43.128Z,19.63
2016-03-01T08:23:43.005Z,19.6
2016-03-01T08:24:43.743Z,19.6
2016-03-01T08:25:43.308Z,19.68
2016-03-01T08:26:43.466Z,19.72
2016-03-01T08:27:43.094Z,19.57
2016-03-01T08:28:43.550Z,19.63
2016-03-01T08:29:43.396Z,19.58
2016-03-01T08:30:43.227Z,19.68
2016-03-01T08:31:43.215Z,19.68
2016-03-01T08:32:41.765Z,19.68
2016-03-01T08:33:42.782Z,19.6
2016-03-01T08:34:43.066Z,19.68
2016-03-01T08:35:42.444Z,19.57
2016-03-01T08:36:42.682Z,19.65
2016-03-01T08:37:39.090Z,19.6
2016-03-01T08:38:39.076Z,19.65
2016-03-01T08:39:39.049Z,19.66
2016-03-01T08:40:39.036Z,19.58
2016-03-01T08:41:39.007Z,19.68
2016-03-01T08:42:38.995Z,19.6
2016-03-01T08:43:38.981Z,19.6
2016-03-01T08:44:38.953Z,19.69
2016-03-01T08:45:39.377Z,19.55
2016-03-01T08:46:38.928Z,19.66
2016-03-01T08:47:38.914Z,19.65
2016-03-01T08:48:38.728Z,19.68
2016-03-01T08:49:38.919Z,19.6
2016-03-01T08:50:38.875Z,19.69
2016-03-01T08:51:38.831Z,19.57
2016-03-01T08:52:38.819Z,19.68
2016-03-01T08:53:38.806Z,19.69
2016-03-01T08:54:38.792Z,19.65
2016-03-01T08:55:38.747Z,19.65
2016-03-01T08:56:38.751Z,19.69
2016-03-01T08:57:38.722Z,19.57
2016-03-01T08:58:38.710Z,19.61
2016-03-01T08:59:38.712Z,19.68
2016-03-01T09:00:38.715Z,19.72
2016-03-01T09:01:38.655Z,19.68
2016-03-01T09:02:38.641Z,19.66
2016-03-01T09:03:38.613Z,19.65
2016-03-01T09:04:38.601Z,19.7
2016-03-01T09:05:38.587Z,19.61
2016-03-01T09:06:38.574Z,19.68
2016-03-01T09:07:38.546Z,19.65
2016-03-01T09:08:38.376Z,19.6
2016-03-01T09:09:38.520Z,19.69
2016-03-01T09:10:38.506Z,19.63
2016-03-01T09:11:38.463Z,19.72
2016-03-01T09:12:38.465Z,19.66
2016-03-01T09:13:38.468Z,19.69
2016-03-01T09:14:38.409Z,19.7
2016-03-01T09:15:38.395Z,19.69
2016-03-01T09:16:38.383Z,19.7
2016-03-01T09:17:38.353Z,19.78
2016-03-01T09:18:38.342Z,19.7
2016-03-01T09:19:38.328Z,19.76
2016-03-01T09:20:38.315Z,19.8
2016-03-01T09:21:38.286Z,19.75
2016-03-01T09:22:38.274Z,19.8
2016-03-01T09:23:38.245Z,19.76
2016-03-01T09:24:38.263Z,19.84
2016-03-01T09:25:38.236Z,19.88
2016-03-01T09:26:38.206Z,19.88
2016-03-01T09:27:38.193Z,19.86
2016-03-01T09:28:38.180Z,19.88
2016-03-01T09:29:38.152Z,19.84
2016-03-01T09:30:38.124Z,19.79
2016-03-01T09:31:38.110Z,19.83
2016-03-01T09:32:38.097Z,19.8
2016-03-01T09:33:38.085Z,19.75
2016-03-01T09:34:38.056Z,19.83
2016-03-01T09:35:38.090Z,19.76
2016-03-01T09:36:38.030Z,19.68
2016-03-01T09:37:38.002Z,19.65
2016-03-01T09:38:38.004Z,19.53
2016-03-01T09:39:37.976Z,19.43
2016-03-01T09:40:37.963Z,19.21
2016-03-01T09:41:37.934Z,18.99
2016-03-01T09:42:37.905Z,18.79
2016-03-01T09:43:37.908Z,18.67
2016-03-01T09:44:37.879Z,18.68
2016-03-01T09:45:37.867Z,18.76
2016-03-01T09:46:37.838Z,18.82
2016-03-01T09:47:37.826Z,19.02
2016-03-01T09:48:37.812Z,19.11
2016-03-01T09:49:37.783Z,19.2
2016-03-01T09:50:37.770Z,19.17
2016-03-01T09:51:37.805Z,19.25
2016-03-01T09:52:37.729Z,19.31
2016-03-01T09:53:37.700Z,19.25
2016-03-01T09:54:37.703Z,19.38
2016-03-01T09:55:37.691Z,19.39
2016-03-01T09:56:37.661Z,19.35
2016-03-01T09:57:37.634Z,19.39
2016-03-01T09:58:37.636Z,19.43
2016-03-01T09:59:37.608Z,19.4
2016-03-01T10:00:37.579Z,19.42
2016-03-01T10:01:37.613Z,19.39
2016-03-01T10:02:37.553Z,19.48
2016-03-01T10:03:37.524Z,19.4
2016-03-01T10:04:37.512Z,19.38
2016-03-01T10:05:37.515Z,19.42
2016-03-01T10:06:37.486Z,19.51
2016-03-01T10:07:37.457Z,19.47
2016-03-01T10:08:37.444Z,19.46
2016-03-01T10:09:37.432Z,19.55
2016-03-01T10:10:37.246Z,19.53
2016-03-01T10:11:37.390Z,19.53
2016-03-01T10:12:37.377Z,19.51
2016-03-01T10:13:37.348Z,19.54
2016-03-01T10:14:37.335Z,19.57
2016-03-01T10:15:37.353Z,19.48
2016-03-01T10:16:37.294Z,19.53
2016-03-01T10:17:37.281Z,19.51
2016-03-01T10:18:37.252Z,19.55
2016-03-01T10:19:37.240Z,19.6
2016-03-01T10:20:37.226Z,19.54
2016-03-01T10:21:37.197Z,19.46
2016-03-01T10:22:37.185Z,19.42
2016-03-01T10:23:37.172Z,19.53
2016-03-01T10:24:37.159Z,19.48
2016-03-01T10:25:37.146Z,19.54
2016-03-01T10:26:37.133Z,19.55
2016-03-01T10:27:37.105Z,19.51
2016-03-01T10:28:37.091Z,19.4
2016-03-01T10:29:37.047Z,19.57
2016-03-01T10:30:37.050Z,19.55
2016-03-01T10:31:37.022Z,19.53
2016-03-01T10:32:36.993Z,19.46
2016-03-01T10:33:36.980Z,19.4
2016-03-01T10:34:36.968Z,19.48
2016-03-01T10:35:36.985Z,19.57
2016-03-01T10:36:36.941Z,19.6
2016-03-01T10:37:36.928Z,19.54
2016-03-01T10:38:36.900Z,19.46
2016-03-01T10:39:36.871Z,19.54
2016-03-01T10:40:36.905Z,19.66
2016-03-01T10:41:36.830Z,19.42
2016-03-01T10:42:36.832Z,19.57
2016-03-01T10:43:36.820Z,19.48
2016-03-01T10:44:36.791Z,19.63
2016-03-01T10:45:36.763Z,19.54
2016-03-01T10:46:36.750Z,19.58
2016-03-01T10:47:36.720Z,19.48
2016-03-01T10:48:36.709Z,19.61
2016-03-01T10:49:36.695Z,19.55
2016-03-01T10:50:36.682Z,19.66
2016-03-01T10:51:36.685Z,19.42
2016-03-01T10:52:36.641Z,19.5
2016-03-01T10:53:36.627Z,19.63
2016-03-01T10:54:36.614Z,19.55
2016-03-01T10:55:36.586Z,19.58
2016-03-01T10:56:36.573Z,19.57
2016-03-01T10:57:36.544Z,19.65
2016-03-01T10:58:36.532Z,19.63
2016-03-01T10:59:36.519Z,19.46
2016-03-01T11:00:36.505Z,19.55
2016-03-01T11:01:36.478Z,19.58
2016-03-01T11:02:36.808Z,19.55
2016-03-01T11:03:36.452Z,19.55
2016-03-01T11:04:36.423Z,19.55
2016-03-01T11:05:36.394Z,19.58
2016-03-01T11:06:36.397Z,19.57
2016-03-01T11:07:36.431Z,19.55
2016-03-01T11:08:36.512Z,19.58
2016-03-01T11:09:36.327Z,19.57
2016-03-01T11:10:36.315Z,19.58
2016-03-01T11:11:36.301Z,19.54
2016-03-01T11:12:36.304Z,19.55
2016-03-01T11:13:36.276Z,19.6
2016-03-01T11:14:36.231Z,19.55
2016-03-01T11:15:36.234Z,19.55
2016-03-01T11:16:36.221Z,19.54
2016-03-01T11:17:36.192Z,19.58
2016-03-01T11:18:36.007Z,19.57
2016-03-01T11:19:36.150Z,19.58
2016-03-01T11:20:36.138Z,19.55
2016-03-01T11:21:36.125Z,19.55
2016-03-01T11:22:36.222Z,19.55
2016-03-01T11:23:36.083Z,19.55
2016-03-01T11:24:36.070Z,19.58
2016-03-01T11:25:36.041Z,19.58
2016-03-01T11:26:36.029Z,19.55
2016-03-01T11:27:36.000Z,19.58
2016-03-01T11:28:35.988Z,19.58
2016-03-01T11:29:35.974Z,19.55
2016-03-01T11:30:35.961Z,19.55
2016-03-01T11:31:35.949Z,19.58
2016-03-01T11:32:35.919Z,19.58
2016-03-01T11:33:35.892Z,19.54
2016-03-01T11:34:35.879Z,19.58
2016-03-01T11:35:35.881Z,19.58
2016-03-01T11:36:35.852Z,19.54
2016-03-01T11:37:35.824Z,19.65
2016-03-01T11:38:35.811Z,19.58
2016-03-01T11:39:35.798Z,19.53
2016-03-01T11:40:35.785Z,19.55
2016-03-01T11:41:35.773Z,19.55
2016-03-01T11:42:35.728Z,19.55
2016-03-01T11:43:35.716Z,19.58
2016-03-01T11:44:35.999Z,19.55
2016-03-01T11:45:35.721Z,19.58
2016-03-01T11:46:35.661Z,19.61
2016-03-01T11:47:35.648Z,19.58
2016-03-01T11:48:35.635Z,19.51
2016-03-01T11:49:35.606Z,19.6
2016-03-01T11:50:35.593Z,19.63
2016-03-01T11:51:35.581Z,19.55
2016-03-01T11:52:35.552Z,19.55
2016-03-01T11:53:35.540Z,19.58
2016-03-01T11:54:35.526Z,19.55
2016-03-01T11:55:35.498Z,19.57
2016-03-01T11:56:35.484Z,19.6
2016-03-01T11:57:35.472Z,19.57
2016-03-01T11:58:35.458Z,19.54
2016-03-01T11:59:36.024Z,19.55
2016-03-01T12:00:35.416Z,19.65
2016-03-01T12:01:35.405Z,19.58
2016-03-01T12:02:35.391Z,19.54
2016-03-01T12:03:35.363Z,19.58
2016-03-01T12:04:35.335Z,19.55
2016-03-01T12:05:35.321Z,19.55
2016-03-01T12:06:35.294Z,19.58
2016-03-01T12:07:35.297Z,19.57
2016-03-01T12:08:35.267Z,19.58
2016-03-01T12:09:35.255Z,19.54
2016-03-01T12:10:35.226Z,19.57
2016-03-01T12:11:35.230Z,19.58
2016-03-01T12:12:35.200Z,19.57
2016-03-01T12:13:35.188Z,19.6
2016-03-01T12:14:35.003Z,19.54
2016-03-01T12:15:35.146Z,19.65
2016-03-01T12:16:35.133Z,19.61
2016-03-01T12:17:35.214Z,19.61
2016-03-01T12:18:35.091Z,19.65
2016-03-01T12:19:35.079Z,19.58
2016-03-01T12:20:35.065Z,19.58
2016-03-01T12:21:35.038Z,19.58
2016-03-01T12:22:35.009Z,19.55
2016-03-01T12:23:34.996Z,19.58
2016-03-01T12:24:34.999Z,19.6
2016-03-01T12:25:34.954Z,19.55
2016-03-01T12:26:34.940Z,19.58
2016-03-01T12:27:35.350Z,19.57
2016-03-01T12:28:34.900Z,19.68
2016-03-01T12:29:34.917Z,19.6
2016-03-01T12:30:34.889Z,19.57
2016-03-01T12:31:34.939Z,19.57
2016-03-01T12:32:34.832Z,19.57
2016-03-01T12:33:34.820Z,19.55
2016-03-01T12:34:34.806Z,19.57
2016-03-01T12:35:34.778Z,19.55
2016-03-01T12:36:34.764Z,19.55
2016-03-01T12:37:34.737Z,19.57
2016-03-01T12:38:34.723Z,19.57
2016-03-01T12:39:34.725Z,19.58
2016-03-01T12:40:34.683Z,19.54
2016-03-01T12:41:34.669Z,19.57
2016-03-01T12:42:34.656Z,19.51
2016-03-01T12:43:34.644Z,19.68
2016-03-01T12:44:34.631Z,19.42
2016-03-01T12:45:34.617Z,19.57
2016-03-01T12:46:34.574Z,19.58
2016-03-01T12:47:34.561Z,19.51
2016-03-01T12:48:34.547Z,19.58
2016-03-01T12:49:34.535Z,19.54
2016-03-01T12:50:34.505Z,19.54
2016-03-01T12:51:34.508Z,19.54
2016-03-01T12:52:34.480Z,19.58
2016-03-01T12:53:34.451Z,19.57
2016-03-01T12:54:34.438Z,19.53
2016-03-01T12:55:34.410Z,19.6